createdAt,value
2018-02-09T00:00:19.170Z,1.30
2018-02-09T00:02:47.255Z,1.30
2018-02-09T00:05:14.726Z,1.20
2018-02-09T00:07:42.973Z,1.20
2018-02-09T00:10:10.450Z,1.20
2018-02-09T00:12:37.962Z,1.20
2018-02-09T00:15:05.455Z,1.20
2018-02-09T00:17:32.966Z,1.20
2018-02-09T00:20:00.489Z,1.20
2018-02-09T00:22:40.895Z,1.30
2018-02-09T00:25:10.035Z,1.30
2018-02-09T00:27:37.541Z,1.30
2018-02-09T00:30:05.096Z,1.30
2018-02-09T00:32:32.562Z,1.30
2018-02-09T00:35:02.100Z,1.30
2018-02-09T00:37:29.563Z,1.30
2018-02-09T00:39:57.033Z,1.30
2018-02-09T00:42:24.551Z,1.30
2018-02-09T00:44:52.022Z,1.30
2018-02-09T00:47:19.553Z,1.30
2018-02-09T00:49:46.979Z,1.30
2018-02-09T00:52:15.219Z,1.20
2018-02-09T00:54:42.693Z,1.20
2018-02-09T00:57:10.179Z,1.20
2018-02-09T00:59:37.726Z,1.20
2018-02-09T01:02:05.987Z,1.10
2018-02-09T01:04:33.491Z,1.10
2018-02-09T01:07:01.001Z,1.10
2018-02-09T01:09:28.466Z,1.10
2018-02-09T01:11:55.966Z,1.10
2018-02-09T01:14:23.452Z,1.10
2018-02-09T01:16:50.913Z,1.10
2018-02-09T01:19:18.418Z,1.00
2018-02-09T01:21:45.886Z,1.00
2018-02-09T01:24:13.365Z,0.90
2018-02-09T01:26:41.731Z,0.90
2018-02-09T01:29:09.234Z,0.90
2018-02-09T01:31:36.742Z,0.90
2018-02-09T01:34:04.199Z,0.90
2018-02-09T01:36:31.658Z,0.80
2018-02-09T01:38:59.368Z,0.80
2018-02-09T01:41:27.676Z,0.70
2018-02-09T01:43:55.155Z,0.70
2018-02-09T01:46:22.712Z,0.70
2018-02-09T01:48:50.167Z,0.70
2018-02-09T01:51:17.619Z,0.70
2018-02-09T01:53:45.093Z,0.70
2018-02-09T01:56:12.566Z,0.60
2018-02-09T01:58:40.660Z,0.60
2018-02-09T02:01:08.134Z,0.70
2018-02-09T02:03:37.216Z,0.60
2018-02-09T02:06:04.704Z,0.60
2018-02-09T02:08:32.249Z,0.60
2018-02-09T02:11:00.618Z,0.50
2018-02-09T02:13:28.866Z,0.50
2018-02-09T02:15:57.855Z,0.60
2018-02-09T02:18:25.323Z,0.50
2018-02-09T02:20:52.842Z,0.50
2018-02-09T02:23:20.338Z,0.60
2018-02-09T02:25:50.613Z,0.50
2018-02-09T02:28:18.125Z,0.50
2018-02-09T02:30:45.581Z,0.50
2018-02-09T02:33:13.052Z,0.50
2018-02-09T02:35:41.282Z,0.40
2018-02-09T02:38:08.765Z,0.40
2018-02-09T02:40:36.251Z,0.40
2018-02-09T02:43:04.478Z,0.40
2018-02-09T02:45:31.961Z,0.40
2018-02-09T02:47:59.430Z,0.40
2018-02-09T02:50:27.684Z,0.30
2018-02-09T02:52:55.153Z,0.30
2018-02-09T02:55:22.612Z,0.30
2018-02-09T02:57:50.090Z,0.30
2018-02-09T03:00:17.563Z,0.30
2018-02-09T03:02:45.031Z,0.30
2018-02-09T03:05:12.525Z,0.30
2018-02-09T03:07:39.990Z,0.30
2018-02-09T03:10:07.450Z,0.30
2018-02-09T03:12:34.932Z,0.30
2018-02-09T03:15:02.390Z,0.40
2018-02-09T03:17:29.886Z,0.40
2018-02-09T03:19:57.378Z,0.40
2018-02-09T03:22:24.843Z,0.40
2018-02-09T03:24:53.067Z,0.40
2018-02-09T03:27:20.595Z,0.40
2018-02-09T03:29:48.065Z,0.40
2018-02-09T03:32:15.538Z,0.40
2018-02-09T03:34:43.056Z,0.40
2018-02-09T03:37:11.273Z,0.40
2018-02-09T03:39:38.765Z,0.30
2018-02-09T03:42:06.288Z,0.40
2018-02-09T03:44:33.748Z,0.30
2018-02-09T03:47:01.235Z,0.30
2018-02-09T03:49:28.717Z,0.30
2018-02-09T03:51:56.234Z,0.30
2018-02-09T03:54:23.758Z,0.30
2018-02-09T03:56:51.317Z,0.30
2018-02-09T03:59:18.794Z,0.30
2018-02-09T04:01:46.277Z,0.30
2018-02-09T04:04:15.268Z,0.30
2018-02-09T04:06:42.780Z,0.30
2018-02-09T04:09:10.275Z,0.30
2018-02-09T04:11:37.788Z,0.30
2018-02-09T04:14:05.262Z,0.30
2018-02-09T04:16:33.819Z,0.30
2018-02-09T04:19:02.103Z,0.30
2018-02-09T04:21:29.626Z,0.30
2018-02-09T04:23:57.150Z,0.30
2018-02-09T04:26:24.626Z,0.20
2018-02-09T04:28:52.126Z,0.20
2018-02-09T04:31:19.610Z,0.20
2018-02-09T04:33:47.109Z,0.30
2018-02-09T04:36:15.709Z,0.20
2018-02-09T04:38:43.941Z,0.20
2018-02-09T04:41:11.401Z,0.20
2018-02-09T04:43:38.935Z,0.20
2018-02-09T04:46:06.387Z,0.20
2018-02-09T04:48:33.887Z,0.20
2018-02-09T04:51:02.227Z,0.20
2018-02-09T04:53:29.741Z,0.10
2018-02-09T04:55:57.290Z,0.10
2018-02-09T04:58:24.800Z,0.10
2018-02-09T05:00:52.266Z,0.10
2018-02-09T05:03:19.728Z,0.10
2018-02-09T05:08:21.041Z,0.10
2018-02-09T05:10:49.296Z,0.10
2018-02-09T05:13:16.764Z,0.10
2018-02-09T05:15:44.691Z,0.10
2018-02-09T05:18:12.165Z,0.10
2018-02-09T05:20:39.742Z,0.10
2018-02-09T05:23:07.251Z,0.10
2018-02-09T05:25:34.713Z,0.10
2018-02-09T05:28:02.203Z,0.10
2018-02-09T05:30:29.678Z,0.10
2018-02-09T05:32:57.950Z,0.10
2018-02-09T05:35:25.412Z,0.10
2018-02-09T05:37:52.893Z,0.10
2018-02-09T05:40:20.382Z,0.10
2018-02-09T05:42:47.843Z,0.10
2018-02-09T05:45:15.338Z,0.10
2018-02-09T05:47:43.919Z,0.10
2018-02-09T05:50:11.394Z,0.10
2018-02-09T05:52:39.637Z,0.10
2018-02-09T05:55:07.124Z,0.10
2018-02-09T05:57:35.397Z,0.00
2018-02-09T06:00:03.614Z,0.00
2018-02-09T06:02:31.104Z,0.00
2018-02-09T06:04:58.571Z,-0.10
2018-02-09T06:07:26.042Z,-0.10
2018-02-09T06:09:54.312Z,-0.20
2018-02-09T06:12:22.541Z,-0.20
2018-02-09T06:14:50.113Z,-0.20
2018-02-09T06:17:17.702Z,-0.20
2018-02-09T06:19:45.165Z,-0.20
2018-02-09T06:22:13.431Z,-0.20
2018-02-09T06:24:41.013Z,-0.30
2018-02-09T06:27:08.495Z,-0.20
2018-02-09T06:29:35.958Z,-0.20
2018-02-09T06:32:03.422Z,-0.30
2018-02-09T06:34:30.918Z,-0.30
2018-02-09T06:36:58.389Z,-0.30
2018-02-09T06:39:26.698Z,-0.30
2018-02-09T06:41:54.166Z,-0.30
2018-02-09T06:44:21.933Z,-0.30
2018-02-09T06:46:49.714Z,-0.30
2018-02-09T06:49:18.092Z,-0.30
2018-02-09T06:51:45.545Z,-0.40
2018-02-09T06:54:13.030Z,-0.30
2018-02-09T06:56:41.284Z,-0.40
2018-02-09T06:59:08.783Z,-0.40
2018-02-09T07:01:36.286Z,-0.40
2018-02-09T07:04:03.758Z,-0.40
2018-02-09T07:06:31.706Z,-0.40
2018-02-09T07:08:59.209Z,-0.40
2018-02-09T07:11:27.165Z,-0.30
2018-02-09T07:13:54.662Z,-0.30
2018-02-09T07:16:22.161Z,-0.30
2018-02-09T07:18:49.637Z,-0.30
2018-02-09T07:21:17.155Z,-0.30
2018-02-09T07:23:44.629Z,-0.30
2018-02-09T07:26:12.118Z,-0.30
2018-02-09T07:28:40.349Z,-0.30
2018-02-09T07:31:08.637Z,-0.30
2018-02-09T07:33:36.107Z,-0.30
2018-02-09T07:36:03.572Z,-0.20
2018-02-09T07:38:31.041Z,-0.20
2018-02-09T07:40:59.293Z,-0.20
2018-02-09T07:43:26.770Z,-0.20
2018-02-09T07:45:55.014Z,-0.10
2018-02-09T07:48:22.503Z,-0.10
2018-02-09T07:50:50.734Z,0.00
2018-02-09T07:53:18.226Z,0.00
2018-02-09T07:55:46.487Z,0.10
2018-02-09T07:58:13.959Z,0.00
2018-02-09T08:00:42.186Z,0.10
2018-02-09T08:03:09.667Z,0.10
2018-02-09T08:05:37.126Z,0.20
2018-02-09T08:08:04.586Z,0.20
2018-02-09T08:10:32.160Z,0.20
2018-02-09T08:12:59.630Z,0.30
2018-02-09T08:15:28.730Z,0.30
2018-02-09T08:17:56.971Z,0.30
2018-02-09T08:20:24.545Z,0.30
2018-02-09T08:22:52.023Z,0.40
2018-02-09T08:25:20.262Z,0.40
2018-02-09T08:27:47.901Z,0.40
2018-02-09T08:30:15.362Z,0.40
2018-02-09T08:32:42.829Z,0.50
2018-02-09T08:35:10.311Z,0.60
2018-02-09T08:37:37.833Z,0.60
2018-02-09T08:40:05.306Z,0.60
2018-02-09T08:42:32.778Z,0.60
2018-02-09T08:45:00.254Z,0.60
2018-02-09T08:47:28.505Z,0.70
2018-02-09T08:49:55.967Z,0.60
2018-02-09T08:52:23.451Z,0.60
2018-02-09T08:54:51.683Z,0.60
2018-02-09T08:57:19.143Z,0.60
2018-02-09T08:59:46.678Z,0.70
2018-02-09T09:02:14.142Z,0.70
2018-02-09T09:04:41.603Z,0.70
2018-02-09T09:07:09.100Z,0.80
2018-02-09T09:09:36.556Z,0.80
2018-02-09T09:12:04.782Z,1.00
2018-02-09T09:14:32.276Z,1.00
2018-02-09T09:16:59.738Z,1.00
2018-02-09T09:19:27.225Z,1.10
2018-02-09T09:21:54.689Z,1.10
2018-02-09T09:24:22.469Z,1.20
2018-02-09T09:26:49.947Z,1.30
2018-02-09T09:29:17.427Z,1.40
2018-02-09T09:31:44.914Z,1.40
2018-02-09T09:34:12.392Z,1.50
2018-02-09T09:36:39.863Z,1.60
2018-02-09T09:39:07.359Z,1.60
2018-02-09T09:41:34.829Z,1.60
2018-02-09T09:44:03.070Z,1.70
2018-02-09T09:46:30.547Z,1.70
2018-02-09T09:48:58.053Z,1.70
2018-02-09T09:51:25.536Z,1.70
2018-02-09T09:53:53.043Z,1.80
2018-02-09T09:56:21.303Z,1.80
2018-02-09T09:58:49.676Z,1.80
2018-02-09T10:01:22.942Z,1.70
2018-02-09T10:03:50.401Z,1.80
2018-02-09T10:06:17.861Z,1.80
2018-02-09T10:08:45.343Z,1.80
2018-02-09T10:11:13.577Z,2.00
2018-02-09T10:13:41.039Z,1.90
2018-02-09T10:16:08.522Z,2.00
2018-02-09T10:18:35.981Z,1.90
2018-02-09T10:21:05.078Z,2.20
2018-02-09T10:23:32.616Z,2.10
2018-02-09T10:26:00.090Z,2.30
2018-02-09T10:28:27.559Z,2.40
2018-02-09T10:30:55.062Z,2.50
2018-02-09T10:33:22.522Z,2.50
2018-02-09T10:35:49.978Z,2.50
2018-02-09T10:38:17.475Z,2.60
2018-02-09T10:40:44.929Z,2.60
2018-02-09T10:43:13.165Z,2.50
2018-02-09T10:45:40.690Z,2.50
2018-02-09T10:48:08.921Z,2.40
2018-02-09T10:50:36.433Z,2.40
2018-02-09T10:53:03.930Z,2.40
2018-02-09T10:55:31.459Z,2.40
2018-02-09T10:57:58.929Z,2.40
2018-02-09T11:00:32.113Z,2.40
2018-02-09T11:02:59.563Z,2.20
2018-02-09T11:05:27.538Z,2.30
2018-02-09T11:07:55.038Z,2.40
2018-02-09T11:10:28.380Z,2.50
2018-02-09T11:12:55.853Z,2.50
2018-02-09T11:15:23.373Z,2.40
2018-02-09T11:17:50.839Z,2.30
2018-02-09T11:20:18.371Z,2.30
2018-02-09T11:22:46.646Z,2.40
2018-02-09T11:25:14.887Z,2.40
2018-02-09T11:27:42.470Z,2.40
2018-02-09T11:30:10.040Z,2.40
2018-02-09T11:32:38.282Z,2.50
2018-02-09T11:35:05.913Z,2.50
2018-02-09T11:37:33.397Z,2.60
2018-02-09T11:40:00.865Z,2.50
2018-02-09T11:42:28.354Z,2.50
2018-02-09T11:44:56.586Z,2.50
2018-02-09T11:47:24.079Z,2.50
2018-02-09T11:49:51.598Z,2.50
2018-02-09T11:52:19.098Z,2.50
2018-02-09T11:54:48.151Z,2.50
2018-02-09T11:57:15.638Z,2.40
2018-02-09T11:59:43.210Z,2.40
2018-02-09T12:02:11.435Z,2.40
2018-02-09T12:04:38.959Z,2.40
2018-02-09T12:07:07.192Z,2.50
2018-02-09T12:09:34.656Z,2.50
2018-02-09T12:12:02.234Z,2.60
2018-02-09T12:14:30.570Z,2.60
2018-02-09T12:16:58.039Z,2.50
2018-02-09T12:19:26.329Z,2.50
2018-02-09T12:21:53.802Z,2.50
2018-02-09T12:24:22.093Z,2.60
2018-02-09T12:26:50.333Z,2.60
2018-02-09T12:29:17.803Z,2.60
2018-02-09T12:31:46.046Z,2.80
2018-02-09T12:34:13.533Z,2.80
2018-02-09T12:36:41.802Z,2.60
2018-02-09T12:39:09.912Z,2.50
2018-02-09T12:41:37.357Z,2.70
2018-02-09T12:44:05.661Z,2.70
2018-02-09T12:46:33.161Z,2.60
2018-02-09T12:49:01.618Z,2.70
2018-02-09T12:51:29.103Z,2.70
2018-02-09T12:53:56.573Z,2.80
2018-02-09T12:56:24.818Z,2.80
2018-02-09T12:58:52.290Z,2.80
2018-02-09T13:01:19.751Z,2.80
2018-02-09T13:03:47.365Z,2.80
2018-02-09T13:06:14.879Z,2.90
2018-02-09T13:08:43.110Z,3.00
2018-02-09T13:11:10.586Z,3.00
2018-02-09T13:13:38.058Z,2.90
2018-02-09T13:16:05.558Z,2.90
2018-02-09T13:18:44.834Z,2.80
2018-02-09T13:21:12.298Z,2.80
2018-02-09T13:23:51.721Z,2.80
2018-02-09T13:26:19.205Z,2.80
2018-02-09T13:28:57.473Z,2.50
2018-02-09T13:31:24.926Z,2.50
2018-02-09T13:33:52.420Z,2.60
2018-02-09T13:36:34.831Z,2.60
2018-02-09T13:39:03.066Z,2.60
2018-02-09T13:41:30.565Z,2.60
2018-02-09T13:43:58.047Z,2.50
2018-02-09T13:46:26.278Z,2.40
2018-02-09T13:48:53.827Z,2.40
2018-02-09T13:51:21.405Z,2.40
2018-02-09T13:53:48.959Z,2.40
2018-02-09T13:56:16.434Z,2.40
2018-02-09T13:58:45.708Z,2.40
2018-02-09T14:01:13.217Z,2.40
2018-02-09T14:03:41.209Z,2.40
2018-02-09T14:06:08.705Z,2.30
2018-02-09T14:08:36.179Z,2.30
2018-02-09T14:11:04.447Z,2.30
2018-02-09T14:13:31.930Z,2.30
2018-02-09T14:15:59.389Z,2.10
2018-02-09T14:18:26.871Z,2.20
2018-02-09T14:20:54.392Z,2.20
2018-02-09T14:23:22.629Z,2.20
2018-02-09T14:25:50.107Z,2.20
2018-02-09T14:28:18.382Z,2.30
2018-02-09T14:30:46.638Z,2.30
2018-02-09T14:33:14.099Z,2.30
2018-02-09T14:35:41.590Z,2.10
2018-02-09T14:38:10.237Z,1.90
2018-02-09T14:40:37.734Z,1.90
2018-02-09T14:43:06.358Z,2.00
2018-02-09T14:45:33.819Z,2.00
2018-02-09T14:48:01.288Z,1.90
2018-02-09T14:50:28.811Z,1.90
2018-02-09T14:52:56.324Z,1.90
2018-02-09T14:55:24.470Z,1.90
2018-02-09T14:57:52.053Z,1.90
2018-02-09T15:00:21.160Z,1.90
2018-02-09T15:02:48.615Z,1.90
2018-02-09T15:05:16.870Z,1.80
2018-02-09T15:07:44.467Z,1.80
2018-02-09T15:10:12.778Z,1.80
2018-02-09T15:12:40.305Z,1.80
2018-02-09T15:15:07.770Z,1.80
2018-02-09T15:17:35.322Z,1.80
2018-02-09T15:20:02.827Z,1.70
2018-02-09T15:22:30.326Z,1.70
2018-02-09T15:24:58.582Z,1.70
2018-02-09T15:27:26.075Z,1.70
2018-02-09T15:29:54.164Z,1.60
2018-02-09T15:32:21.635Z,1.60
2018-02-09T15:34:49.699Z,1.60
2018-02-09T15:37:17.161Z,1.60
2018-02-09T15:39:44.638Z,1.70
2018-02-09T15:42:12.120Z,1.60
2018-02-09T15:44:41.060Z,1.50
2018-02-09T15:47:08.669Z,1.50
2018-02-09T15:49:37.672Z,1.40
2018-02-09T15:52:05.992Z,1.40
2018-02-09T15:54:33.494Z,1.40
2018-02-09T15:57:01.745Z,1.40
2018-02-09T15:59:29.235Z,1.40
2018-02-09T16:01:57.560Z,1.30
2018-02-09T16:04:25.022Z,1.30
2018-02-09T16:06:52.482Z,1.30
2018-02-09T16:09:19.992Z,1.30
2018-02-09T16:11:49.258Z,1.30
2018-02-09T16:14:16.725Z,1.20
2018-02-09T16:16:44.228Z,1.30
2018-02-09T16:19:11.776Z,1.20
2018-02-09T16:21:40.001Z,1.20
2018-02-09T16:24:07.608Z,1.20
2018-02-09T16:26:35.754Z,1.20
2018-02-09T16:29:03.212Z,1.20
2018-02-09T16:31:30.697Z,1.20
2018-02-09T16:33:58.153Z,1.20
2018-02-09T16:36:25.618Z,1.20
2018-02-09T16:38:53.139Z,1.20
2018-02-09T16:41:23.129Z,1.10
2018-02-09T16:43:50.601Z,1.10
2018-02-09T16:46:18.175Z,1.10
2018-02-09T16:48:46.514Z,1.10
2018-02-09T16:51:14.024Z,1.10
2018-02-09T16:53:42.298Z,1.10
2018-02-09T16:56:10.531Z,1.00
2018-02-09T16:58:38.005Z,1.00
2018-02-09T17:01:06.270Z,1.10
2018-02-09T17:03:33.730Z,1.00
2018-02-09T17:06:01.244Z,1.00
2018-02-09T17:08:28.779Z,1.00
2018-02-09T17:10:57.014Z,1.00
2018-02-09T17:13:24.585Z,1.00
2018-02-09T17:15:52.068Z,1.00
2018-02-09T17:18:21.408Z,1.00
2018-02-09T17:20:50.959Z,1.00
2018-02-09T17:23:18.415Z,1.00
2018-02-09T17:25:45.923Z,1.00
2018-02-09T17:28:13.426Z,0.90
2018-02-09T17:30:40.990Z,0.90
2018-02-09T17:33:10.210Z,0.90
2018-02-09T17:35:37.641Z,0.90
2018-02-09T17:38:06.342Z,0.90
2018-02-09T17:40:34.712Z,0.90
2018-02-09T17:43:02.987Z,0.90
2018-02-09T17:45:31.259Z,0.90
2018-02-09T17:47:59.527Z,0.90
2018-02-09T17:50:27.014Z,0.90
2018-02-09T17:52:54.532Z,0.90
2018-02-09T17:55:22.018Z,0.90
2018-02-09T17:57:50.368Z,0.90
2018-02-09T18:00:17.842Z,0.90
2018-02-09T18:02:46.142Z,0.90
2018-02-09T18:05:13.691Z,0.80
2018-02-09T18:07:41.937Z,0.90
2018-02-09T18:10:09.401Z,0.90
2018-02-09T18:12:36.915Z,0.90
2018-02-09T18:15:04.386Z,0.90
2018-02-09T18:17:32.391Z,0.90
2018-02-09T18:20:00.902Z,0.90
2018-02-09T18:22:28.411Z,0.90
2018-02-09T18:24:55.888Z,0.90
2018-02-09T18:27:23.398Z,0.80
2018-02-09T18:29:51.647Z,0.80
2018-02-09T18:32:19.610Z,0.80
2018-02-09T18:34:47.896Z,0.80
2018-02-09T18:37:17.041Z,0.80
2018-02-09T18:39:44.522Z,0.80
2018-02-09T18:42:12.792Z,0.80
2018-02-09T18:44:40.271Z,0.80
2018-02-09T18:47:07.781Z,0.80
2018-02-09T18:49:35.309Z,0.80
2018-02-09T18:52:02.827Z,0.80
2018-02-09T18:54:31.058Z,0.80
2018-02-09T18:56:58.638Z,0.80
2018-02-09T18:59:26.122Z,0.80
2018-02-09T19:01:55.138Z,0.80
2018-02-09T19:04:23.375Z,0.80
2018-02-09T19:06:51.659Z,0.80
2018-02-09T19:09:19.274Z,0.80
2018-02-09T19:11:46.929Z,0.80
2018-02-09T19:14:14.751Z,0.80
2018-02-09T19:16:42.598Z,0.80
2018-02-09T19:19:14.342Z,0.80
2018-02-09T19:21:42.400Z,0.80
2018-02-09T19:24:09.915Z,0.90
2018-02-09T19:26:38.359Z,0.90
2018-02-09T19:29:06.113Z,0.90
2018-02-09T19:31:33.604Z,0.90
2018-02-09T19:34:01.115Z,0.90
2018-02-09T19:36:28.586Z,0.90
2018-02-09T19:38:56.107Z,0.90
2018-02-09T19:41:23.708Z,0.90
2018-02-09T19:43:51.397Z,0.90
2018-02-09T19:46:19.126Z,0.90
2018-02-09T19:48:46.766Z,1.00
2018-02-09T19:51:15.359Z,1.00
2018-02-09T19:53:42.939Z,1.00
2018-02-09T19:56:10.731Z,0.90
2018-02-09T19:58:39.072Z,0.90
2018-02-09T20:01:06.740Z,0.90
2018-02-09T20:03:35.164Z,0.90
2018-02-09T20:06:02.714Z,0.90
2018-02-09T20:08:30.246Z,1.00
2018-02-09T20:10:57.737Z,1.00
2018-02-09T20:13:26.022Z,1.00
2018-02-09T20:15:53.517Z,1.00
2018-02-09T20:18:21.305Z,1.00
2018-02-09T20:20:49.637Z,1.00
2018-02-09T20:23:17.212Z,1.00
2018-02-09T20:25:44.755Z,1.00
2018-02-09T20:28:12.374Z,1.00
2018-02-09T20:30:40.130Z,1.10
2018-02-09T20:33:10.611Z,1.10
2018-02-09T20:35:39.398Z,1.00
2018-02-09T20:38:08.894Z,1.00
2018-02-09T20:40:37.536Z,1.00
2018-02-09T20:43:05.776Z,1.00
2018-02-09T20:45:35.806Z,1.00
2018-02-09T20:48:03.979Z,1.00
2018-02-09T20:50:33.383Z,1.00
2018-02-09T20:53:02.300Z,1.00
2018-02-09T20:55:30.822Z,1.00
2018-02-09T20:57:58.652Z,1.10
2018-02-09T21:00:27.724Z,1.00
2018-02-09T21:02:57.179Z,1.00
2018-02-09T21:05:26.607Z,1.00
2018-02-09T21:07:54.272Z,1.00
2018-02-09T21:10:23.020Z,1.10
2018-02-09T21:12:50.689Z,1.00
2018-02-09T21:15:18.476Z,1.00
2018-02-09T21:17:46.993Z,1.10
2018-02-09T21:20:15.670Z,1.10
2018-02-09T21:22:45.474Z,1.10
2018-02-09T21:25:14.213Z,1.10
2018-02-09T21:27:41.897Z,1.10
2018-02-09T21:30:09.634Z,1.10
2018-02-09T21:32:37.437Z,1.10
2018-02-09T21:35:06.305Z,1.10
2018-02-09T21:37:34.372Z,1.10
2018-02-09T21:40:02.067Z,1.10
2018-02-09T21:42:30.058Z,1.00
2018-02-09T21:44:58.076Z,1.10
2018-02-09T21:47:25.965Z,1.10
2018-02-09T21:49:54.280Z,1.10
2018-02-09T21:52:23.713Z,1.10
2018-02-09T21:54:52.014Z,1.10
2018-02-09T21:57:19.534Z,1.00
2018-02-09T21:59:47.086Z,1.10
2018-02-09T22:02:14.607Z,1.10
2018-02-09T22:04:42.178Z,1.00
2018-02-09T22:07:09.882Z,1.10
2018-02-09T22:09:37.454Z,1.00
2018-02-09T22:12:05.056Z,1.10
2018-02-09T22:14:32.586Z,1.10
2018-02-09T22:17:00.092Z,1.00
2018-02-09T22:19:28.448Z,1.10
2018-02-09T22:21:55.967Z,1.00
2018-02-09T22:24:25.055Z,1.10
2018-02-09T22:26:53.641Z,1.10
2018-02-09T22:29:21.701Z,1.10
2018-02-09T22:31:49.244Z,1.10
2018-02-09T22:34:16.890Z,1.10
2018-02-09T22:36:45.245Z,1.10
2018-02-09T22:39:12.920Z,1.10
2018-02-09T22:41:40.450Z,1.10
2018-02-09T22:44:07.949Z,1.20
2018-02-09T22:46:36.206Z,1.20
2018-02-09T22:49:03.698Z,1.20
2018-02-09T22:51:31.217Z,1.10
2018-02-09T22:53:58.740Z,1.20
2018-02-09T22:56:26.242Z,1.20
2018-02-09T22:58:53.841Z,1.20
2018-02-09T23:01:21.362Z,1.20
2018-02-09T23:03:48.984Z,1.20
2018-02-09T23:06:16.661Z,1.20
2018-02-09T23:08:44.230Z,1.20
2018-02-09T23:11:11.721Z,1.20
2018-02-09T23:13:39.247Z,1.20
2018-02-09T23:16:06.726Z,1.20
2018-02-09T23:18:34.959Z,1.20
2018-02-09T23:21:03.450Z,1.20
2018-02-09T23:23:30.933Z,1.20
2018-02-09T23:25:59.224Z,1.20
2018-02-09T23:28:26.743Z,1.20
2018-02-09T23:30:54.223Z,1.30
2018-02-09T23:33:22.496Z,1.30
2018-02-09T23:35:50.749Z,1.20
2018-02-09T23:38:18.292Z,1.20
2018-02-09T23:40:45.780Z,1.20
2018-02-09T23:43:13.369Z,1.30
2018-02-09T23:45:40.918Z,1.30
2018-02-09T23:48:09.233Z,1.30
2018-02-09T23:50:36.742Z,1.30
2018-02-09T23:53:05.045Z,1.40
2018-02-09T23:55:32.606Z,1.40
2018-02-09T23:58:00.234Z,1.30
